createdAt,value
2023-03-03T00:02:20.703Z,62.88
2023-03-03T00:04:47.094Z,61.70
2023-03-03T00:07:15.549Z,69.57
2023-03-03T00:09:41.843Z,73.25
2023-03-03T00:12:08.142Z,74.30
2023-03-03T00:14:34.518Z,76.40
2023-03-03T00:17:00.811Z,74.00
2023-03-03T00:19:27.139Z,83.20
2023-03-03T00:21:53.467Z,89.53
2023-03-03T00:24:20.050Z,73.32
2023-03-03T00:26:46.427Z,86.32
2023-03-03T00:29:12.836Z,80.53
2023-03-03T00:31:39.160Z,86.87
2023-03-03T00:34:06.313Z,85.20
2023-03-03T00:36:32.882Z,75.72
2023-03-03T00:38:59.255Z,88.22
2023-03-03T00:41:25.553Z,90.30
2023-03-03T00:43:51.926Z,93.70
2023-03-03T00:46:19.078Z,79.35
2023-03-03T00:48:45.472Z,87.22
2023-03-03T00:51:12.014Z,79.07
2023-03-03T00:53:38.590Z,99.50
2023-03-03T00:56:04.921Z,93.60
2023-03-03T00:58:31.322Z,95.55
2023-03-03T01:00:58.963Z,89.60
2023-03-03T01:03:25.319Z,93.62
2023-03-03T01:05:51.645Z,75.37
2023-03-03T01:08:18.016Z,85.07
2023-03-03T01:10:44.325Z,89.82
2023-03-03T01:13:10.641Z,87.37
2023-03-03T01:15:36.958Z,94.50
2023-03-03T01:18:03.341Z,87.00
2023-03-03T01:20:29.673Z,94.37
2023-03-03T01:22:55.980Z,92.75
2023-03-03T01:25:22.284Z,93.95
2023-03-03T01:27:48.589Z,85.97
2023-03-03T01:30:14.940Z,85.57
2023-03-03T01:32:41.232Z,83.05
2023-03-03T01:35:07.587Z,83.03
2023-03-03T01:37:33.908Z,84.28
2023-03-03T01:40:00.289Z,73.60
2023-03-03T01:42:29.331Z,81.97
2023-03-03T01:44:55.663Z,77.93
2023-03-03T01:47:21.975Z,73.62
2023-03-03T01:49:48.358Z,72.25
2023-03-03T01:52:14.702Z,77.28
2023-03-03T01:54:41.003Z,74.43
2023-03-03T01:57:07.337Z,70.93
2023-03-03T01:59:33.649Z,73.78
2023-03-03T02:02:00.020Z,78.57
2023-03-03T02:04:26.622Z,79.47
2023-03-03T02:06:53.097Z,85.87
2023-03-03T02:09:19.477Z,97.70
2023-03-03T02:11:45.885Z,100.78
2023-03-03T02:14:12.201Z,88.47
2023-03-03T02:16:38.520Z,107.68
2023-03-03T02:19:04.829Z,93.05
2023-03-03T02:21:31.153Z,94.65
2023-03-03T02:23:57.454Z,88.93
2023-03-03T02:26:23.929Z,80.03
2023-03-03T02:28:50.284Z,76.95
2023-03-03T02:31:16.704Z,79.22
2023-03-03T02:33:43.039Z,69.55
2023-03-03T02:36:09.344Z,77.43
2023-03-03T02:38:35.675Z,90.38
2023-03-03T02:41:02.077Z,90.40
2023-03-03T02:43:28.418Z,84.30
2023-03-03T02:45:54.947Z,82.93
2023-03-03T02:48:21.263Z,83.95
2023-03-03T02:50:47.585Z,87.62
2023-03-03T02:53:13.894Z,81.90
2023-03-03T02:55:40.226Z,68.62
2023-03-03T02:58:06.540Z,79.28
2023-03-03T03:00:33.349Z,85.35
2023-03-03T03:02:59.949Z,90.53
2023-03-03T03:05:26.259Z,84.40
2023-03-03T03:07:52.581Z,86.93
2023-03-03T03:10:18.905Z,76.40
2023-03-03T03:12:45.231Z,78.60
2023-03-03T03:15:11.770Z,75.73
2023-03-03T03:17:38.251Z,75.28
2023-03-03T03:20:04.546Z,68.75
2023-03-03T03:22:30.871Z,64.95
2023-03-03T03:24:57.631Z,69.53
2023-03-03T03:27:23.955Z,66.28
2023-03-03T03:29:50.281Z,71.03
2023-03-03T03:32:16.656Z,72.22
2023-03-03T03:34:42.954Z,68.87
2023-03-03T03:37:09.997Z,69.50
2023-03-03T03:39:36.621Z,73.60
2023-03-03T03:42:02.970Z,73.65
2023-03-03T03:44:29.338Z,88.65
2023-03-03T03:46:55.651Z,67.55
2023-03-03T03:49:22.075Z,67.53
2023-03-03T03:51:48.402Z,78.30
2023-03-03T03:54:14.726Z,65.30
2023-03-03T03:56:41.040Z,72.35
2023-03-03T03:59:07.384Z,73.10
2023-03-03T04:01:33.719Z,73.03
2023-03-03T04:04:00.036Z,78.00
2023-03-03T04:06:26.409Z,79.63
2023-03-03T04:08:52.717Z,67.00
2023-03-03T04:11:19.049Z,68.30
2023-03-03T04:13:45.373Z,68.95
2023-03-03T04:16:11.782Z,71.87
2023-03-03T04:18:38.200Z,68.78
2023-03-03T04:21:04.535Z,71.97
2023-03-03T04:23:30.953Z,69.80
2023-03-03T04:25:57.258Z,75.37
2023-03-03T04:28:25.381Z,74.62
2023-03-03T04:30:51.715Z,68.65
2023-03-03T04:33:18.039Z,64.57
2023-03-03T04:35:44.419Z,70.78
2023-03-03T04:38:10.878Z,68.93
2023-03-03T04:40:37.211Z,66.12
2023-03-03T04:43:04.260Z,71.10
2023-03-03T04:45:30.615Z,69.47
2023-03-03T04:47:56.960Z,58.75
2023-03-03T04:50:23.266Z,57.40
2023-03-03T04:52:49.609Z,57.90
2023-03-03T04:55:16.896Z,50.90
2023-03-03T04:57:43.222Z,45.85
2023-03-03T05:00:09.537Z,47.78
2023-03-03T05:02:35.885Z,43.67
2023-03-03T05:05:02.308Z,40.95
2023-03-03T05:07:28.651Z,45.12
2023-03-03T05:09:54.963Z,46.83
2023-03-03T05:12:21.322Z,46.40
2023-03-03T05:14:47.834Z,48.38
2023-03-03T05:17:14.499Z,46.25
2023-03-03T05:19:40.828Z,43.95
2023-03-03T05:22:07.161Z,46.97
2023-03-03T05:24:33.461Z,47.13
2023-03-03T05:26:59.811Z,58.40
2023-03-03T05:29:26.411Z,54.75
2023-03-03T05:31:52.840Z,53.78
2023-03-03T05:34:19.206Z,59.83
2023-03-03T05:36:45.517Z,49.70
2023-03-03T05:39:11.841Z,61.47
2023-03-03T05:41:38.206Z,60.15
2023-03-03T05:44:04.579Z,69.50
2023-03-03T05:46:30.911Z,65.07
2023-03-03T05:48:57.321Z,71.00
2023-03-03T05:51:23.641Z,68.43
2023-03-03T05:53:49.964Z,69.00
2023-03-03T05:56:16.288Z,68.78
2023-03-03T05:58:42.617Z,74.85
2023-03-03T06:01:08.982Z,66.55
2023-03-03T06:03:35.296Z,64.25
2023-03-03T06:06:01.593Z,60.03
2023-03-03T06:08:27.979Z,70.75
2023-03-03T06:10:54.279Z,70.57
2023-03-03T06:13:20.585Z,68.32
2023-03-03T06:15:46.929Z,74.00
2023-03-03T06:18:13.275Z,66.28
2023-03-03T06:20:39.630Z,69.78
2023-03-03T06:23:05.985Z,84.28
2023-03-03T06:25:32.304Z,70.55
2023-03-03T06:27:58.609Z,71.18
2023-03-03T06:30:27.039Z,66.70
2023-03-03T06:32:53.371Z,73.85
2023-03-03T06:35:19.779Z,65.12
2023-03-03T06:37:46.127Z,76.72
2023-03-03T06:40:12.489Z,80.85
2023-03-03T06:42:38.842Z,76.65
2023-03-03T06:45:05.167Z,87.95
2023-03-03T06:47:31.699Z,70.90
2023-03-03T06:49:58.014Z,70.82
2023-03-03T06:52:24.359Z,69.37
2023-03-03T06:54:50.712Z,71.35
2023-03-03T06:57:17.083Z,66.80
2023-03-03T06:59:43.397Z,61.95
2023-03-03T07:02:09.699Z,57.15
2023-03-03T07:04:36.253Z,54.38
2023-03-03T07:07:02.752Z,54.05
2023-03-03T07:09:29.073Z,56.42
2023-03-03T07:11:55.386Z,57.47
2023-03-03T07:14:21.734Z,59.53
2023-03-03T07:16:48.112Z,49.70
2023-03-03T07:19:14.444Z,49.45
2023-03-03T07:21:40.779Z,52.50
2023-03-03T07:24:07.129Z,53.17
2023-03-03T07:26:33.656Z,53.38
2023-03-03T07:28:59.995Z,54.90
2023-03-03T07:31:26.934Z,55.90
2023-03-03T07:33:53.412Z,53.65
2023-03-03T07:36:19.807Z,51.58
2023-03-03T07:38:46.152Z,52.90
2023-03-03T07:41:12.467Z,57.67
2023-03-03T07:43:38.849Z,49.17
2023-03-03T07:46:05.971Z,47.97
2023-03-03T07:48:32.329Z,53.10
2023-03-03T07:50:58.632Z,53.25
2023-03-03T07:53:24.928Z,49.10
2023-03-03T07:55:51.231Z,54.72
2023-03-03T07:58:17.596Z,48.45
2023-03-03T08:00:44.534Z,51.13
2023-03-03T08:03:11.001Z,48.10
2023-03-03T08:05:37.314Z,51.08
2023-03-03T08:08:03.781Z,58.42
2023-03-03T08:10:30.264Z,54.13
2023-03-03T08:12:56.621Z,50.20
2023-03-03T08:15:23.330Z,51.03
2023-03-03T08:17:49.714Z,43.90
2023-03-03T08:20:16.043Z,41.55
2023-03-03T08:22:43.653Z,35.65
2023-03-03T08:25:09.997Z,37.25
2023-03-03T08:27:36.339Z,37.53
2023-03-03T08:30:02.678Z,33.25
2023-03-03T08:32:29.187Z,36.15
2023-03-03T08:34:55.572Z,34.45
2023-03-03T08:37:22.008Z,34.28
2023-03-03T08:39:48.386Z,32.50
2023-03-03T08:42:16.235Z,31.48
2023-03-03T08:44:43.256Z,31.52
2023-03-03T08:47:09.625Z,31.02
2023-03-03T08:49:35.999Z,26.23
2023-03-03T08:52:02.317Z,32.28
2023-03-03T08:54:28.993Z,31.52
2023-03-03T08:56:55.397Z,31.12
2023-03-03T08:59:22.473Z,29.12
2023-03-03T09:01:48.845Z,28.87
2023-03-03T09:04:15.263Z,28.35
2023-03-03T09:06:41.752Z,30.65
2023-03-03T09:09:08.087Z,24.60
2023-03-03T09:11:34.471Z,28.70
2023-03-03T09:14:00.861Z,28.58
2023-03-03T09:16:27.248Z,28.27
2023-03-03T09:18:53.648Z,25.45
2023-03-03T09:21:19.961Z,29.37
2023-03-03T09:23:46.277Z,32.60
2023-03-03T09:26:12.575Z,25.48
2023-03-03T09:28:38.899Z,28.17
2023-03-03T09:31:07.524Z,27.17
2023-03-03T09:33:34.034Z,27.15
2023-03-03T09:36:00.405Z,22.77
2023-03-03T09:38:26.834Z,20.17
2023-03-03T09:40:53.634Z,22.85
2023-03-03T09:43:24.273Z,23.67
2023-03-03T09:45:50.679Z,25.70
2023-03-03T09:48:17.188Z,18.60
2023-03-03T09:50:43.544Z,19.58
2023-03-03T09:53:09.862Z,20.02
2023-03-03T09:55:37.295Z,18.12
2023-03-03T09:58:10.870Z,19.70
2023-03-03T10:00:37.658Z,16.70
2023-03-03T10:03:04.380Z,18.30
2023-03-03T10:05:30.767Z,17.95
2023-03-03T10:07:57.096Z,16.10
2023-03-03T10:10:23.409Z,12.93
2023-03-03T10:12:50.569Z,14.32
2023-03-03T10:15:17.147Z,15.38
2023-03-03T10:17:43.520Z,15.07
2023-03-03T10:20:09.846Z,12.70
2023-03-03T10:22:36.321Z,16.30
2023-03-03T10:25:02.853Z,16.35
2023-03-03T10:27:29.172Z,17.00
2023-03-03T10:29:56.645Z,14.38
2023-03-03T10:32:23.237Z,13.38
2023-03-03T10:34:49.694Z,16.35
2023-03-03T10:37:16.016Z,13.07
2023-03-03T10:39:42.350Z,13.45
2023-03-03T10:42:08.670Z,13.85
2023-03-03T10:44:34.988Z,13.43
2023-03-03T10:47:01.445Z,15.27
2023-03-03T10:49:28.766Z,14.00
2023-03-03T10:51:55.165Z,13.70
2023-03-03T10:54:21.716Z,13.02
2023-03-03T10:56:53.395Z,13.95
2023-03-03T10:59:20.073Z,14.48
2023-03-03T11:01:46.446Z,11.40
2023-03-03T11:04:12.877Z,14.57
2023-03-03T11:06:39.260Z,12.23
2023-03-03T11:09:05.575Z,10.10
2023-03-03T11:11:31.956Z,12.15
2023-03-03T11:13:58.284Z,9.88
2023-03-03T11:16:24.700Z,10.10
2023-03-03T11:18:51.133Z,9.20
2023-03-03T11:21:17.458Z,11.55
2023-03-03T11:23:43.805Z,11.50
2023-03-03T11:26:10.124Z,10.95
2023-03-03T11:28:36.541Z,9.25
2023-03-03T11:31:02.935Z,10.80
2023-03-03T11:33:29.367Z,9.88
2023-03-03T11:35:55.703Z,11.48
2023-03-03T11:38:22.094Z,9.63
2023-03-03T11:40:48.548Z,11.98
2023-03-03T11:43:26.315Z,11.77
2023-03-03T11:46:00.428Z,13.27
2023-03-03T11:48:26.787Z,11.88
2023-03-03T11:50:53.781Z,10.88
2023-03-03T11:53:20.133Z,9.95
2023-03-03T11:55:46.452Z,10.68
2023-03-03T11:58:12.760Z,11.15
2023-03-03T12:00:39.091Z,11.55
2023-03-03T12:03:05.506Z,14.27
2023-03-03T12:05:31.883Z,9.95
2023-03-03T12:07:58.243Z,8.80
2023-03-03T12:10:24.557Z,9.50
2023-03-03T12:12:50.877Z,11.52
2023-03-03T12:15:17.169Z,11.02
2023-03-03T12:17:43.527Z,9.60
2023-03-03T12:20:09.877Z,8.65
2023-03-03T12:22:36.837Z,11.68
2023-03-03T12:25:03.270Z,10.45
2023-03-03T12:27:29.673Z,8.75
2023-03-03T12:29:56.310Z,9.20
2023-03-03T12:32:22.849Z,8.23
2023-03-03T12:34:49.385Z,9.68
2023-03-03T12:37:15.768Z,9.73
2023-03-03T12:39:42.300Z,6.87
2023-03-03T12:42:08.725Z,7.20
2023-03-03T12:44:35.147Z,7.22
2023-03-03T12:47:02.080Z,6.47
2023-03-03T12:49:32.443Z,7.05
2023-03-03T12:52:01.404Z,9.90
2023-03-03T12:54:27.800Z,6.85
2023-03-03T12:56:54.953Z,7.68
2023-03-03T12:59:21.372Z,8.95
2023-03-03T13:01:47.782Z,6.12
2023-03-03T13:04:14.328Z,7.57
2023-03-03T13:06:40.845Z,6.53
2023-03-03T13:09:07.282Z,7.07
2023-03-03T13:11:33.726Z,6.72
2023-03-03T13:14:00.257Z,8.38
2023-03-03T13:16:40.254Z,7.70
2023-03-03T13:19:07.643Z,6.80
2023-03-03T13:21:34.168Z,9.52
2023-03-03T13:24:01.653Z,8.20
2023-03-03T13:26:29.774Z,9.43
2023-03-03T13:28:57.213Z,7.87
2023-03-03T13:31:23.643Z,8.52
2023-03-03T13:33:51.542Z,9.07
2023-03-03T13:36:17.947Z,7.90
2023-03-03T13:38:44.375Z,8.45
2023-03-03T13:41:10.802Z,9.30
2023-03-03T13:43:37.288Z,8.90
2023-03-03T13:46:05.679Z,9.20
2023-03-03T13:48:32.155Z,9.88
2023-03-03T13:50:58.646Z,8.98
2023-03-03T13:53:25.015Z,8.85
2023-03-03T13:55:51.662Z,9.73
2023-03-03T13:58:18.113Z,9.52
2023-03-03T14:00:44.991Z,9.23
2023-03-03T14:03:11.417Z,11.40
2023-03-03T14:05:38.535Z,8.27
2023-03-03T14:08:05.219Z,9.32
2023-03-03T14:10:31.618Z,9.50
2023-03-03T14:12:58.091Z,8.13
2023-03-03T14:15:24.969Z,9.45
2023-03-03T14:17:51.369Z,8.70
2023-03-03T14:20:17.766Z,10.60
2023-03-03T14:22:44.206Z,9.88
2023-03-03T14:25:10.676Z,12.10
2023-03-03T14:27:37.524Z,9.57
2023-03-03T14:30:04.036Z,10.75
2023-03-03T14:32:44.800Z,11.32
2023-03-03T14:35:11.944Z,12.40
2023-03-03T14:37:38.483Z,11.20
2023-03-03T14:40:05.014Z,10.18
2023-03-03T14:42:36.882Z,9.95
2023-03-03T14:45:04.912Z,13.52
2023-03-03T14:47:31.333Z,9.60
2023-03-03T14:50:00.509Z,11.25
2023-03-03T14:52:27.027Z,10.00
2023-03-03T14:54:53.504Z,9.77
2023-03-03T14:57:19.938Z,11.18
2023-03-03T14:59:46.417Z,9.45
2023-03-03T15:02:12.824Z,10.10
2023-03-03T15:04:39.422Z,8.55
2023-03-03T15:07:05.840Z,7.65
2023-03-03T15:09:37.675Z,10.77
2023-03-03T15:12:04.323Z,10.65
2023-03-03T15:14:30.826Z,9.25
2023-03-03T15:16:57.192Z,9.93
2023-03-03T15:19:23.574Z,8.30
2023-03-03T15:21:49.984Z,10.77
2023-03-03T15:24:16.432Z,10.82
2023-03-03T15:26:43.013Z,10.35
2023-03-03T15:29:09.435Z,11.02
2023-03-03T15:31:37.211Z,10.38
2023-03-03T15:34:03.694Z,10.75
2023-03-03T15:36:30.202Z,11.60
2023-03-03T15:38:56.911Z,15.82
2023-03-03T15:41:23.359Z,12.57
2023-03-03T15:43:49.759Z,18.83
2023-03-03T15:46:16.224Z,14.43
2023-03-03T15:48:42.675Z,11.85
2023-03-03T15:51:09.084Z,13.40
2023-03-03T15:53:37.391Z,13.73
2023-03-03T15:56:03.776Z,13.35
2023-03-03T15:58:30.414Z,15.82
2023-03-03T16:00:56.934Z,14.70
2023-03-03T16:03:23.302Z,15.65
2023-03-03T16:05:49.654Z,14.82
2023-03-03T16:08:16.028Z,17.25
2023-03-03T16:10:42.340Z,15.95
2023-03-03T16:13:08.674Z,18.17
2023-03-03T16:15:34.970Z,17.23
2023-03-03T16:18:01.304Z,21.05
2023-03-03T16:20:27.614Z,20.52
2023-03-03T16:22:53.947Z,18.90
2023-03-03T16:25:20.249Z,18.30
2023-03-03T16:27:46.580Z,19.98
2023-03-03T16:30:13.038Z,23.60
2023-03-03T16:32:39.483Z,22.17
2023-03-03T16:35:05.848Z,22.52
2023-03-03T16:37:32.322Z,26.52
2023-03-03T16:39:58.648Z,25.67
2023-03-03T16:42:24.952Z,29.52
2023-03-03T16:44:51.345Z,28.12
2023-03-03T16:47:17.703Z,33.05
2023-03-03T16:49:44.041Z,31.42
2023-03-03T16:52:10.389Z,32.22
2023-03-03T16:54:36.706Z,35.78
2023-03-03T16:57:03.073Z,37.20
2023-03-03T16:59:29.398Z,32.13
2023-03-03T17:01:55.696Z,30.65
2023-03-03T17:04:22.055Z,33.00
2023-03-03T17:06:48.394Z,33.55
2023-03-03T17:09:30.095Z,30.92
2023-03-03T17:12:00.742Z,33.35
2023-03-03T17:14:27.132Z,33.67
2023-03-03T17:16:53.512Z,36.13
2023-03-03T17:19:20.333Z,36.97
2023-03-03T17:21:46.664Z,37.78
2023-03-03T17:24:12.977Z,38.42
2023-03-03T17:26:39.342Z,35.90
2023-03-03T17:29:07.549Z,29.50
2023-03-03T17:31:33.900Z,29.92
2023-03-03T17:34:00.283Z,32.92
2023-03-03T17:36:26.815Z,31.10
2023-03-03T17:38:53.139Z,33.05
2023-03-03T17:41:19.471Z,29.35
2023-03-03T17:43:45.808Z,32.53
2023-03-03T17:46:12.169Z,33.90
2023-03-03T17:48:39.380Z,31.02
2023-03-03T17:51:05.721Z,30.52
2023-03-03T17:53:32.036Z,30.02
2023-03-03T17:55:58.427Z,36.17
2023-03-03T17:58:25.902Z,35.85
2023-03-03T18:00:52.229Z,40.47
2023-03-03T18:03:18.698Z,35.72
2023-03-03T18:05:45.223Z,39.67
2023-03-03T18:08:12.825Z,36.80
2023-03-03T18:10:40.428Z,38.00
2023-03-03T18:13:08.392Z,42.05
2023-03-03T18:15:34.798Z,42.67
2023-03-03T18:18:01.152Z,38.85
2023-03-03T18:20:27.478Z,46.80
2023-03-03T18:22:54.145Z,36.67
2023-03-03T18:25:20.770Z,40.47
2023-03-03T18:27:48.319Z,38.88
2023-03-03T18:30:14.702Z,43.55
2023-03-03T18:32:41.025Z,41.08
2023-03-03T18:35:07.413Z,40.15
2023-03-03T18:37:33.856Z,43.53
2023-03-03T18:40:00.183Z,40.10
2023-03-03T18:42:30.444Z,38.40
2023-03-03T18:44:57.433Z,40.15
2023-03-03T18:47:23.741Z,43.17
2023-03-03T18:49:50.210Z,37.72
2023-03-03T18:52:16.533Z,40.30
2023-03-03T18:54:42.866Z,37.05
2023-03-03T18:57:09.985Z,36.55
2023-03-03T18:59:36.521Z,44.22
2023-03-03T19:02:02.868Z,35.00
2023-03-03T19:04:29.195Z,45.65
2023-03-03T19:06:55.530Z,44.55
2023-03-03T19:09:21.868Z,36.38
2023-03-03T19:11:48.245Z,37.58
2023-03-03T19:14:14.561Z,38.53
2023-03-03T19:16:40.916Z,40.58
2023-03-03T19:19:07.225Z,41.83
2023-03-03T19:21:33.605Z,38.67
2023-03-03T19:24:00.648Z,39.33
2023-03-03T19:26:30.414Z,35.50
2023-03-03T19:28:56.817Z,42.10
2023-03-03T19:31:23.261Z,36.40
2023-03-03T19:33:52.866Z,46.88
2023-03-03T19:36:20.548Z,38.05
2023-03-03T19:38:46.851Z,41.50
2023-03-03T19:41:13.144Z,38.50
2023-03-03T19:43:39.438Z,39.17
2023-03-03T19:46:05.813Z,36.55
2023-03-03T19:48:32.179Z,35.88
2023-03-03T19:50:58.545Z,39.35
2023-03-03T19:53:24.868Z,41.00
2023-03-03T19:55:51.186Z,41.58
2023-03-03T19:58:18.510Z,40.00
2023-03-03T20:00:44.900Z,33.78
2023-03-03T20:03:11.253Z,40.05
2023-03-03T20:05:37.584Z,40.63
2023-03-03T20:08:03.942Z,38.10
2023-03-03T20:10:32.162Z,36.58
2023-03-03T20:13:02.680Z,37.88
2023-03-03T20:15:28.983Z,39.08
2023-03-03T20:17:55.385Z,40.78
2023-03-03T20:20:21.692Z,37.10
2023-03-03T20:22:48.060Z,38.08
2023-03-03T20:25:15.609Z,37.17
2023-03-03T20:27:41.962Z,41.75
2023-03-03T20:30:08.818Z,37.65
2023-03-03T20:32:35.248Z,37.17
2023-03-03T20:35:01.690Z,41.47
2023-03-03T20:37:28.004Z,36.80
2023-03-03T20:39:54.334Z,40.17
2023-03-03T20:42:20.649Z,43.78
2023-03-03T20:44:46.970Z,37.88
2023-03-03T20:47:13.290Z,37.35
2023-03-03T20:49:39.610Z,40.12
2023-03-03T20:52:06.201Z,36.35
2023-03-03T20:54:32.574Z,41.78
2023-03-03T20:56:58.948Z,40.00
2023-03-03T20:59:25.268Z,35.67
2023-03-03T21:01:53.272Z,42.70
2023-03-03T21:04:19.773Z,40.28
2023-03-03T21:06:46.238Z,45.97
2023-03-03T21:09:12.589Z,37.17
2023-03-03T21:11:38.891Z,43.97
2023-03-03T21:14:05.208Z,42.38
2023-03-03T21:16:32.144Z,45.45
2023-03-03T21:18:58.565Z,46.00
2023-03-03T21:23:56.291Z,42.80
2023-03-03T21:26:22.600Z,40.67
2023-03-03T21:28:48.941Z,47.88
2023-03-03T21:31:15.568Z,47.33
2023-03-03T21:33:41.941Z,46.13
2023-03-03T21:36:08.354Z,51.03
2023-03-03T21:38:34.682Z,46.80
2023-03-03T21:41:01.059Z,50.45
2023-03-03T21:43:27.390Z,51.30
2023-03-03T21:45:53.846Z,52.30
2023-03-03T21:48:20.211Z,53.30
2023-03-03T21:50:48.929Z,54.67
2023-03-03T21:53:15.240Z,58.92
2023-03-03T21:55:44.591Z,58.15
2023-03-03T21:58:10.918Z,54.90
2023-03-03T22:00:37.287Z,62.95
2023-03-03T22:03:04.132Z,57.08
2023-03-03T22:05:30.484Z,64.78
2023-03-03T22:07:56.794Z,60.17
2023-03-03T22:10:23.450Z,60.55
2023-03-03T22:12:49.777Z,59.75
2023-03-03T22:15:16.085Z,58.25
2023-03-03T22:17:43.272Z,57.58
2023-03-03T22:20:09.594Z,56.20
2023-03-03T22:22:35.940Z,60.58
2023-03-03T22:25:02.318Z,56.80
2023-03-03T22:27:28.667Z,57.75
2023-03-03T22:29:55.018Z,61.95
2023-03-03T22:32:21.353Z,53.70
2023-03-03T22:34:47.832Z,53.53
2023-03-03T22:37:14.200Z,62.15
2023-03-03T22:39:40.566Z,62.88
2023-03-03T22:42:06.872Z,58.95
2023-03-03T22:44:33.205Z,55.03
2023-03-03T22:46:59.677Z,55.78
2023-03-03T22:49:26.000Z,57.70
2023-03-03T22:51:52.350Z,55.35
2023-03-03T22:54:18.668Z,48.83
2023-03-03T22:56:44.972Z,50.08
2023-03-03T22:59:11.314Z,51.40
2023-03-03T23:01:37.638Z,48.53
2023-03-03T23:04:03.952Z,47.55
2023-03-03T23:06:30.253Z,44.63
2023-03-03T23:08:56.596Z,46.88
2023-03-03T23:11:24.723Z,47.38
2023-03-03T23:13:51.053Z,44.13
2023-03-03T23:16:17.455Z,44.67
2023-03-03T23:18:43.890Z,48.67
2023-03-03T23:21:10.197Z,45.78
2023-03-03T23:23:36.527Z,40.28
2023-03-03T23:26:02.916Z,43.47
2023-03-03T23:28:29.225Z,46.97
2023-03-03T23:30:55.555Z,45.55
2023-03-03T23:33:21.882Z,41.65
2023-03-03T23:35:49.937Z,46.95
2023-03-03T23:38:17.842Z,43.00
2023-03-03T23:40:44.273Z,41.13
2023-03-03T23:43:10.610Z,43.95
2023-03-03T23:45:36.931Z,41.60
2023-03-03T23:48:03.248Z,41.60
2023-03-03T23:50:29.634Z,38.20
2023-03-03T23:52:55.987Z,41.03
2023-03-03T23:55:22.319Z,38.42
2023-03-03T23:57:48.637Z,37.80
